createdAt,value
2018-06-23T00:01:40.793Z,61.70
2018-06-23T00:04:09.386Z,62.00
2018-06-23T00:06:51.489Z,62.20
2018-06-23T00:09:30.368Z,62.40
2018-06-23T00:14:29.237Z,62.90
2018-06-23T00:16:57.524Z,63.00
2018-06-23T00:19:26.040Z,63.10
2018-06-23T00:21:54.325Z,63.30
2018-06-23T00:24:22.645Z,63.40
2018-06-23T00:26:51.315Z,63.30
2018-06-23T00:29:19.855Z,63.20
2018-06-23T00:31:48.248Z,63.30
2018-06-23T00:34:16.532Z,63.70
2018-06-23T00:36:44.800Z,63.60
2018-06-23T00:39:13.831Z,63.80
2018-06-23T00:41:42.104Z,63.80
2018-06-23T00:44:10.378Z,64.20
2018-06-23T00:46:38.630Z,64.50
2018-06-23T00:49:06.928Z,64.80
2018-06-23T00:51:35.753Z,64.80
2018-06-23T00:54:04.248Z,65.20
2018-06-23T00:56:32.900Z,65.60
2018-06-23T00:59:12.724Z,65.80
2018-06-23T01:01:41.769Z,65.60
2018-06-23T01:04:10.489Z,65.80
2018-06-23T01:06:39.042Z,65.90
2018-06-23T01:09:09.100Z,65.80
2018-06-23T01:11:37.583Z,66.00
2018-06-23T01:14:06.143Z,65.70
2018-06-23T01:16:34.835Z,65.80
2018-06-23T01:19:03.115Z,65.90
2018-06-23T01:21:31.703Z,66.00
2018-06-23T01:24:00.083Z,66.00
2018-06-23T01:26:28.376Z,66.10
2018-06-23T01:28:56.876Z,66.30
2018-06-23T01:31:25.324Z,66.40
2018-06-23T01:33:53.814Z,66.10
2018-06-23T01:36:22.159Z,66.30
2018-06-23T01:38:50.590Z,66.50
2018-06-23T01:41:19.345Z,66.40
2018-06-23T01:43:47.626Z,66.60
2018-06-23T01:46:15.973Z,66.50
2018-06-23T01:48:44.309Z,66.30
2018-06-23T01:51:12.729Z,66.20
2018-06-23T01:53:41.165Z,66.70
2018-06-23T01:56:09.485Z,66.40
2018-06-23T01:58:37.765Z,66.20
2018-06-23T02:01:06.098Z,66.20
2018-06-23T02:03:34.784Z,66.30
2018-06-23T02:06:03.228Z,66.10
2018-06-23T02:08:31.580Z,66.30
2018-06-23T02:10:59.891Z,66.30
2018-06-23T02:13:28.168Z,66.30
2018-06-23T02:16:01.807Z,66.40
2018-06-23T02:18:35.543Z,66.50
2018-06-23T02:21:09.292Z,66.50
2018-06-23T02:23:43.034Z,66.80
2018-06-23T02:26:18.518Z,66.70
2018-06-23T02:28:52.523Z,66.60
2018-06-23T02:31:26.713Z,66.80
2018-06-23T02:34:00.408Z,66.80
2018-06-23T02:36:28.718Z,66.80
2018-06-23T02:38:57.356Z,66.60
2018-06-23T02:41:29.514Z,67.10
2018-06-23T02:43:58.634Z,66.50
2018-06-23T02:46:27.554Z,66.60
2018-06-23T02:48:56.119Z,66.60
2018-06-23T02:51:24.976Z,66.80
2018-06-23T02:53:53.777Z,68.00
2018-06-23T02:56:23.260Z,66.80
2018-06-23T02:58:52.100Z,66.70
2018-06-23T03:03:49.946Z,66.80
2018-06-23T03:06:18.592Z,67.10
2018-06-23T03:08:49.015Z,67.20
2018-06-23T03:11:18.346Z,67.10
2018-06-23T03:13:47.038Z,67.30
2018-06-23T03:16:21.182Z,67.50
2018-06-23T03:18:49.502Z,67.50
2018-06-23T03:21:17.780Z,67.40
2018-06-23T03:23:46.675Z,67.50
2018-06-23T03:26:15.087Z,67.50
2018-06-23T03:28:43.348Z,67.50
2018-06-23T03:31:12.657Z,67.60
2018-06-23T03:33:41.202Z,67.60
2018-06-23T03:36:09.786Z,67.50
2018-06-23T03:38:38.261Z,68.10
2018-06-23T03:41:06.864Z,67.50
2018-06-23T03:43:35.228Z,67.50
2018-06-23T03:46:03.524Z,67.60
2018-06-23T03:48:32.112Z,68.60
2018-06-23T03:51:00.373Z,68.20
2018-06-23T03:53:28.670Z,68.30
2018-06-23T03:55:57.150Z,68.60
2018-06-23T03:58:25.469Z,68.70
2018-06-23T04:00:57.470Z,68.50
2018-06-23T04:03:27.720Z,68.60
2018-06-23T04:05:56.162Z,68.50
2018-06-23T04:10:52.705Z,68.40
2018-06-23T04:13:21.149Z,68.30
2018-06-23T04:15:49.477Z,69.10
2018-06-23T04:18:17.812Z,68.30
2018-06-23T04:20:46.058Z,68.10
2018-06-23T04:23:14.329Z,68.20
2018-06-23T04:25:42.821Z,68.30
2018-06-23T04:28:11.118Z,68.60
2018-06-23T04:30:39.415Z,68.90
2018-06-23T04:35:36.330Z,69.40
2018-06-23T04:38:04.869Z,69.20
2018-06-23T04:40:33.170Z,69.80
2018-06-23T04:43:02.393Z,69.60
2018-06-23T04:45:30.968Z,70.00
2018-06-23T04:47:59.244Z,69.50
2018-06-23T04:50:28.281Z,69.70
2018-06-23T04:52:56.593Z,69.10
2018-06-23T04:55:25.069Z,69.10
2018-06-23T04:57:53.593Z,69.60
2018-06-23T05:00:27.495Z,68.90
2018-06-23T05:02:56.697Z,68.50
2018-06-23T05:05:25.735Z,68.10
2018-06-23T05:07:54.195Z,68.30
2018-06-23T05:10:23.268Z,68.20
2018-06-23T05:12:51.539Z,68.60
2018-06-23T05:15:19.919Z,68.30
2018-06-23T05:17:49.485Z,68.40
2018-06-23T05:20:17.918Z,68.60
2018-06-23T05:22:46.373Z,67.80
2018-06-23T05:25:15.497Z,67.00
2018-06-23T05:27:44.585Z,67.00
2018-06-23T05:30:13.393Z,66.80
2018-06-23T05:32:41.979Z,66.70
2018-06-23T05:35:10.487Z,66.50
2018-06-23T05:37:43.715Z,66.30
2018-06-23T05:40:12.189Z,66.70
2018-06-23T05:42:40.554Z,65.80
2018-06-23T05:45:08.823Z,66.30
2018-06-23T05:47:37.241Z,65.50
2018-06-23T05:50:05.521Z,65.80
2018-06-23T05:52:34.360Z,65.10
2018-06-23T05:55:02.919Z,65.30
2018-06-23T05:57:31.246Z,66.00
2018-06-23T05:59:59.510Z,65.10
2018-06-23T06:02:27.794Z,64.60
2018-06-23T06:04:56.209Z,64.10
2018-06-23T06:07:24.830Z,64.20
2018-06-23T06:09:53.122Z,64.30
2018-06-23T06:12:21.686Z,64.50
2018-06-23T06:14:50.189Z,64.40
2018-06-23T06:17:25.154Z,63.70
2018-06-23T06:19:54.647Z,63.40
2018-06-23T06:22:24.370Z,63.80
2018-06-23T06:24:52.641Z,63.20
2018-06-23T06:27:21.201Z,63.20
2018-06-23T06:29:50.006Z,63.90
2018-06-23T06:32:18.500Z,62.80
2018-06-23T06:34:46.812Z,63.10
2018-06-23T06:37:15.239Z,62.50
2018-06-23T06:39:44.206Z,63.00
2018-06-23T06:42:13.194Z,62.20
2018-06-23T06:44:42.324Z,61.60
2018-06-23T06:47:12.202Z,60.00
2018-06-23T06:49:41.218Z,60.00
2018-06-23T06:52:09.738Z,59.70
2018-06-23T06:54:38.540Z,59.40
2018-06-23T06:57:07.385Z,59.40
2018-06-23T06:59:36.086Z,59.60
2018-06-23T07:02:04.370Z,60.30
2018-06-23T07:04:32.947Z,59.60
2018-06-23T07:07:01.236Z,58.90
2018-06-23T07:09:29.627Z,58.70
2018-06-23T07:11:58.198Z,59.00
2018-06-23T07:16:54.579Z,58.50
2018-06-23T07:19:23.607Z,58.40
2018-06-23T07:21:52.035Z,58.10
2018-06-23T07:26:48.979Z,58.00
2018-06-23T07:29:17.652Z,57.50
2018-06-23T07:31:46.497Z,57.60
2018-06-23T07:34:14.809Z,57.00
2018-06-23T07:36:43.296Z,57.30
2018-06-23T07:39:12.168Z,57.50
2018-06-23T07:41:40.469Z,56.90
2018-06-23T07:44:09.308Z,57.20
2018-06-23T07:46:38.016Z,57.00
2018-06-23T07:49:10.224Z,56.90
2018-06-23T07:51:39.174Z,57.00
2018-06-23T07:54:22.400Z,56.80
2018-06-23T07:56:51.630Z,56.10
2018-06-23T07:59:20.118Z,55.60
2018-06-23T08:01:48.493Z,55.30
2018-06-23T08:04:17.173Z,55.20
2018-06-23T08:06:45.564Z,54.40
2018-06-23T08:09:13.964Z,54.10
2018-06-23T08:11:42.361Z,55.20
2018-06-23T08:16:38.902Z,54.00
2018-06-23T08:19:07.689Z,53.50
2018-06-23T08:21:36.562Z,54.00
2018-06-23T08:24:06.932Z,53.70
2018-06-23T08:26:35.882Z,53.60
2018-06-23T08:29:05.474Z,53.60
2018-06-23T08:31:33.789Z,53.50
2018-06-23T08:34:02.258Z,53.80
2018-06-23T08:36:30.617Z,52.00
2018-06-23T08:38:58.911Z,51.20
2018-06-23T08:41:27.287Z,50.50
2018-06-23T08:43:55.573Z,50.50
2018-06-23T08:46:23.868Z,51.80
2018-06-23T08:48:52.561Z,51.80
2018-06-23T08:51:21.187Z,51.40
2018-06-23T08:53:49.640Z,49.40
2018-06-23T08:56:18.116Z,49.30
2018-06-23T08:58:46.640Z,49.80
2018-06-23T09:01:15.186Z,49.70
2018-06-23T09:03:43.619Z,48.90
2018-06-23T09:06:12.004Z,49.80
2018-06-23T09:11:10.467Z,50.90
2018-06-23T09:13:42.088Z,50.80
2018-06-23T09:16:10.884Z,51.10
2018-06-23T09:18:39.404Z,50.60
2018-06-23T09:21:07.747Z,49.20
2018-06-23T09:23:36.300Z,48.30
2018-06-23T09:26:04.627Z,48.20
2018-06-23T09:28:33.529Z,48.10
2018-06-23T09:31:01.851Z,47.50
2018-06-23T09:33:30.496Z,48.60
2018-06-23T09:35:58.965Z,49.10
2018-06-23T09:38:27.283Z,47.30
2018-06-23T09:40:55.749Z,47.80
2018-06-23T09:43:24.244Z,47.20
2018-06-23T09:45:52.572Z,47.80
2018-06-23T09:48:21.763Z,48.40
2018-06-23T09:50:50.301Z,48.40
2018-06-23T09:53:18.763Z,48.20
2018-06-23T09:55:47.653Z,48.90
2018-06-23T09:58:16.109Z,47.80
2018-06-23T10:00:44.445Z,47.30
2018-06-23T10:03:12.889Z,46.90
2018-06-23T10:05:42.719Z,46.60
2018-06-23T10:08:11.319Z,45.60
2018-06-23T10:10:39.973Z,44.60
2018-06-23T10:13:09.636Z,43.30
2018-06-23T10:18:07.425Z,46.40
2018-06-23T10:23:04.551Z,47.20
2018-06-23T10:25:33.328Z,46.20
2018-06-23T10:28:02.207Z,46.80
2018-06-23T10:30:30.820Z,45.90
2018-06-23T10:33:01.957Z,46.10
2018-06-23T10:35:30.346Z,46.40
2018-06-23T10:37:58.938Z,45.80
2018-06-23T10:40:28.262Z,46.10
2018-06-23T10:42:56.594Z,45.50
2018-06-23T10:45:25.066Z,45.20
2018-06-23T10:47:53.391Z,43.70
2018-06-23T10:50:22.037Z,44.20
2018-06-23T10:52:50.439Z,44.20
2018-06-23T10:55:19.595Z,45.50
2018-06-23T10:57:48.200Z,46.50
2018-06-23T11:00:16.721Z,46.90
2018-06-23T11:02:45.233Z,46.60
2018-06-23T11:05:13.760Z,46.30
2018-06-23T11:07:42.325Z,46.60
2018-06-23T11:10:12.023Z,46.10
2018-06-23T11:12:40.634Z,45.80
2018-06-23T11:15:09.193Z,45.20
2018-06-23T11:17:38.196Z,44.90
2018-06-23T11:20:07.245Z,44.70
2018-06-23T11:22:35.735Z,44.80
2018-06-23T11:25:04.351Z,45.70
2018-06-23T11:27:39.253Z,46.30
2018-06-23T11:30:08.083Z,46.60
2018-06-23T11:32:36.815Z,47.40
2018-06-23T11:35:05.761Z,46.40
2018-06-23T11:37:34.863Z,45.50
2018-06-23T11:40:03.494Z,45.80
2018-06-23T11:42:32.135Z,45.80
2018-06-23T11:45:00.631Z,46.40
2018-06-23T11:47:47.844Z,45.70
2018-06-23T11:50:25.985Z,46.10
2018-06-23T11:52:54.869Z,46.10
2018-06-23T11:55:25.865Z,46.10
2018-06-23T11:57:57.083Z,45.30
2018-06-23T12:00:35.856Z,45.00
2018-06-23T12:03:11.288Z,43.00
2018-06-23T12:05:40.386Z,42.30
2018-06-23T12:08:09.779Z,42.50
2018-06-23T12:10:38.570Z,41.90
2018-06-23T12:13:22.513Z,43.80
2018-06-23T12:15:53.457Z,43.60
2018-06-23T12:18:22.164Z,43.70
2018-06-23T12:20:55.531Z,43.40
2018-06-23T12:23:31.888Z,43.70
2018-06-23T12:26:00.582Z,44.60
2018-06-23T12:28:29.101Z,45.90
2018-06-23T12:31:01.942Z,45.90
2018-06-23T12:33:41.489Z,46.40
2018-06-23T12:36:10.163Z,46.40
2018-06-23T12:38:39.235Z,44.10
2018-06-23T12:41:07.752Z,42.70
2018-06-23T12:43:36.521Z,42.40
2018-06-23T12:46:05.343Z,41.90
2018-06-23T12:48:33.755Z,41.20
2018-06-23T12:51:02.352Z,41.10
2018-06-23T12:53:30.705Z,41.40
2018-06-23T12:55:59.307Z,42.50
2018-06-23T12:58:28.110Z,43.30
2018-06-23T13:00:56.518Z,44.00
2018-06-23T13:03:24.856Z,44.30
2018-06-23T13:08:22.154Z,43.40
2018-06-23T13:10:51.478Z,41.90
2018-06-23T13:13:20.064Z,42.40
2018-06-23T13:15:48.482Z,42.70
2018-06-23T13:18:18.594Z,43.40
2018-06-23T13:20:46.978Z,43.10
2018-06-23T13:23:15.668Z,43.70
2018-06-23T13:25:44.044Z,43.80
2018-06-23T13:28:12.633Z,43.50
2018-06-23T13:30:41.406Z,43.50
2018-06-23T13:33:09.786Z,42.80
2018-06-23T13:35:38.197Z,41.70
2018-06-23T13:38:07.012Z,41.90
2018-06-23T13:40:36.141Z,40.90
2018-06-23T13:43:04.641Z,41.60
2018-06-23T13:45:33.418Z,41.30
2018-06-23T13:48:01.860Z,41.60
2018-06-23T13:50:30.539Z,41.80
2018-06-23T13:52:58.983Z,41.10
2018-06-23T13:55:27.407Z,40.70
2018-06-23T13:57:55.791Z,41.60
2018-06-23T14:00:24.205Z,42.50
2018-06-23T14:02:52.568Z,42.20
2018-06-23T14:05:20.895Z,42.70
2018-06-23T14:07:49.504Z,41.50
2018-06-23T14:10:17.878Z,41.00
2018-06-23T14:12:46.374Z,41.00
2018-06-23T14:15:14.679Z,41.00
2018-06-23T14:17:43.300Z,41.80
2018-06-23T14:20:11.734Z,42.00
2018-06-23T14:22:40.667Z,42.30
2018-06-23T14:25:09.169Z,42.10
2018-06-23T14:27:37.515Z,41.50
2018-06-23T14:30:06.378Z,40.70
2018-06-23T14:32:35.126Z,39.10
2018-06-23T14:35:03.934Z,39.40
2018-06-23T14:37:33.182Z,40.20
2018-06-23T14:40:01.506Z,40.50
2018-06-23T14:42:31.622Z,42.20
2018-06-23T14:44:59.960Z,41.00
2018-06-23T14:47:28.573Z,41.20
2018-06-23T14:49:57.530Z,41.90
2018-06-23T14:52:33.658Z,42.20
2018-06-23T14:55:02.101Z,42.40
2018-06-23T14:57:31.578Z,41.80
2018-06-23T14:59:59.916Z,42.70
2018-06-23T15:02:30.777Z,42.90
2018-06-23T15:04:59.196Z,42.30
2018-06-23T15:07:27.745Z,41.80
2018-06-23T15:10:07.596Z,41.80
2018-06-23T15:12:47.436Z,42.20
2018-06-23T15:15:15.906Z,41.80
2018-06-23T15:17:44.393Z,41.00
2018-06-23T15:20:12.693Z,41.30
2018-06-23T15:25:10.040Z,41.30
2018-06-23T15:27:42.365Z,42.10
2018-06-23T15:30:11.490Z,42.80
2018-06-23T15:32:39.851Z,43.10
2018-06-23T15:37:36.569Z,43.90
2018-06-23T15:40:07.652Z,43.70
2018-06-23T15:42:36.025Z,43.40
2018-06-23T15:45:05.118Z,43.40
2018-06-23T15:47:35.816Z,43.60
2018-06-23T15:50:04.276Z,43.70
2018-06-23T15:52:32.874Z,43.70
2018-06-23T15:55:01.160Z,43.60
2018-06-23T15:57:29.789Z,42.60
2018-06-23T15:59:58.194Z,42.00
2018-06-23T16:02:26.592Z,41.80
2018-06-23T16:04:55.145Z,41.70
2018-06-23T16:07:23.520Z,42.20
2018-06-23T16:09:52.137Z,42.70
2018-06-23T16:12:22.641Z,42.60
2018-06-23T16:14:56.789Z,43.70
2018-06-23T16:17:25.987Z,44.10
2018-06-23T16:19:54.823Z,43.90
2018-06-23T16:22:23.392Z,43.70
2018-06-23T16:24:52.001Z,44.30
2018-06-23T16:27:20.560Z,45.00
2018-06-23T16:29:48.855Z,45.10
2018-06-23T16:32:17.666Z,45.70
2018-06-23T16:34:46.178Z,44.70
2018-06-23T16:37:14.489Z,44.80
2018-06-23T16:39:42.967Z,44.70
2018-06-23T16:42:11.540Z,44.80
2018-06-23T16:44:39.855Z,45.10
2018-06-23T16:47:08.574Z,45.10
2018-06-23T16:49:37.026Z,45.10
2018-06-23T16:52:05.521Z,45.10
2018-06-23T16:54:33.884Z,45.30
2018-06-23T16:57:02.214Z,45.80
2018-06-23T16:59:30.776Z,45.80
2018-06-23T17:02:07.042Z,45.90
2018-06-23T17:04:35.517Z,46.30
2018-06-23T17:07:03.987Z,46.50
2018-06-23T17:09:34.057Z,46.30
2018-06-23T17:12:02.779Z,46.30
2018-06-23T17:14:31.431Z,46.80
2018-06-23T17:16:59.840Z,46.90
2018-06-23T17:19:28.716Z,47.10
2018-06-23T17:21:57.621Z,46.50
2018-06-23T17:24:26.115Z,47.00
2018-06-23T17:26:54.797Z,46.70
2018-06-23T17:29:23.492Z,47.10
2018-06-23T17:31:54.966Z,47.20
2018-06-23T17:34:24.299Z,47.20
2018-06-23T17:36:52.990Z,47.60
2018-06-23T17:39:22.573Z,47.80
2018-06-23T17:41:51.874Z,48.50
2018-06-23T17:44:23.915Z,47.70
2018-06-23T17:46:52.389Z,48.30
2018-06-23T17:49:21.042Z,49.80
2018-06-23T17:52:11.428Z,51.40
2018-06-23T17:54:39.812Z,52.10
2018-06-23T17:59:38.305Z,54.20
2018-06-23T18:04:36.570Z,55.10
2018-06-23T18:07:05.670Z,56.20
2018-06-23T18:12:02.607Z,55.10
2018-06-23T18:14:31.138Z,55.50
2018-06-23T18:16:59.881Z,55.50
2018-06-23T18:19:28.781Z,55.30
2018-06-23T18:21:57.260Z,56.00
2018-06-23T18:24:26.345Z,54.90
2018-06-23T18:26:56.234Z,55.00
2018-06-23T18:29:24.894Z,55.80
2018-06-23T18:31:53.313Z,55.60
2018-06-23T18:34:21.697Z,55.60
2018-06-23T18:36:50.664Z,55.80
2018-06-23T18:39:20.855Z,55.20
2018-06-23T18:41:49.264Z,54.90
2018-06-23T18:44:18.077Z,54.90
2018-06-23T18:46:47.919Z,55.60
2018-06-23T18:49:16.325Z,55.00
2018-06-23T18:54:13.066Z,55.10
2018-06-23T18:56:41.891Z,54.30
2018-06-23T18:59:10.708Z,54.10
2018-06-23T19:01:39.508Z,53.90
2018-06-23T19:04:07.876Z,54.60
2018-06-23T19:06:36.524Z,54.70
2018-06-23T19:09:07.581Z,55.30
2018-06-23T19:11:36.086Z,56.20
2018-06-23T19:14:05.240Z,55.10
2018-06-23T19:16:33.679Z,54.90
2018-06-23T19:19:02.050Z,54.90
2018-06-23T19:21:30.554Z,55.00
2018-06-23T19:23:58.930Z,55.00
2018-06-23T19:26:27.422Z,55.40
2018-06-23T19:31:23.915Z,54.70
2018-06-23T19:33:53.262Z,54.90
2018-06-23T19:36:22.857Z,55.30
2018-06-23T19:38:51.851Z,55.10
2018-06-23T19:41:27.239Z,55.50
2018-06-23T19:43:56.747Z,55.50
2018-06-23T19:46:26.407Z,55.40
2018-06-23T19:48:55.144Z,55.70
2018-06-23T19:51:23.998Z,55.60
2018-06-23T19:53:52.388Z,55.70
2018-06-23T19:56:21.098Z,56.00
2018-06-23T19:58:59.295Z,56.20
2018-06-23T20:01:28.816Z,56.50
2018-06-23T20:03:58.677Z,56.80
2018-06-23T20:06:27.439Z,56.90
2018-06-23T20:11:24.990Z,57.00
2018-06-23T20:13:54.546Z,57.30
2018-06-23T20:16:23.150Z,57.30
2018-06-23T20:18:52.017Z,57.60
2018-06-23T20:21:21.350Z,57.30
2018-06-23T20:23:50.422Z,57.30
2018-06-23T20:26:27.659Z,57.40
2018-06-23T20:29:01.100Z,57.10
2018-06-23T20:31:30.783Z,57.20
2018-06-23T20:34:00.677Z,57.30
2018-06-23T20:36:30.297Z,57.40
2018-06-23T20:38:59.570Z,58.50
2018-06-23T20:41:28.125Z,57.90
2018-06-23T20:43:56.478Z,57.80
2018-06-23T20:46:24.919Z,57.60
2018-06-23T20:48:53.402Z,57.90
2018-06-23T20:51:22.286Z,57.80
2018-06-23T20:53:50.855Z,58.50
2018-06-23T20:56:19.992Z,57.60
2018-06-23T20:58:48.815Z,57.90
2018-06-23T21:01:17.496Z,57.80
2018-06-23T21:03:46.113Z,58.10
2018-06-23T21:06:14.763Z,58.30
2018-06-23T21:08:43.263Z,58.40
2018-06-23T21:11:11.869Z,58.40
2018-06-23T21:13:40.489Z,58.60
2018-06-23T21:16:09.737Z,58.70
2018-06-23T21:18:38.366Z,58.80
2018-06-23T21:21:09.112Z,59.00
2018-06-23T21:23:39.937Z,59.00
2018-06-23T21:26:09.635Z,59.20
2018-06-23T21:28:42.323Z,59.00
2018-06-23T21:33:39.781Z,59.30
2018-06-23T21:36:08.184Z,59.30
2018-06-23T21:38:37.754Z,59.20
2018-06-23T21:41:06.362Z,59.90
2018-06-23T21:43:34.951Z,59.50
2018-06-23T21:46:04.480Z,60.00
2018-06-23T21:48:39.825Z,60.10
2018-06-23T21:51:11.259Z,60.70
2018-06-23T21:53:40.508Z,61.60
2018-06-23T21:56:12.495Z,63.00
2018-06-23T21:58:40.855Z,63.60
2018-06-23T22:01:09.306Z,64.00
2018-06-23T22:03:37.650Z,65.60
2018-06-23T22:06:08.460Z,65.00
2018-06-23T22:08:37.261Z,64.10
2018-06-23T22:11:09.126Z,65.30
2018-06-23T22:13:38.926Z,64.40
2018-06-23T22:16:08.672Z,64.30
2018-06-23T22:21:07.546Z,65.00
2018-06-23T22:23:36.419Z,64.60
2018-06-23T22:26:05.904Z,64.30
2018-06-23T22:28:34.902Z,63.60
2018-06-23T22:31:03.732Z,64.40
2018-06-23T22:33:32.531Z,63.90
2018-06-23T22:36:01.667Z,64.40
2018-06-23T22:38:30.212Z,63.40
2018-06-23T22:40:58.908Z,63.60
2018-06-23T22:43:27.685Z,64.50
2018-06-23T22:45:58.010Z,65.00
2018-06-23T22:48:26.793Z,64.30
2018-06-23T22:50:55.684Z,65.00
2018-06-23T22:53:24.552Z,64.30
2018-06-23T22:55:58.646Z,64.30
2018-06-23T22:58:29.412Z,63.80
2018-06-23T23:00:58.930Z,64.40
2018-06-23T23:03:27.470Z,64.00
2018-06-23T23:05:57.118Z,64.00
2018-06-23T23:08:27.314Z,64.10
2018-06-23T23:10:57.139Z,64.10
2018-06-23T23:13:26.290Z,64.60
2018-06-23T23:15:54.624Z,64.20
2018-06-23T23:18:22.914Z,64.80
2018-06-23T23:20:51.467Z,66.00
2018-06-23T23:23:19.918Z,66.30
2018-06-23T23:25:48.395Z,67.00
2018-06-23T23:28:17.169Z,66.60
2018-06-23T23:30:45.521Z,66.50
2018-06-23T23:33:13.883Z,66.80
2018-06-23T23:35:42.192Z,67.30
2018-06-23T23:38:10.723Z,68.10
2018-06-23T23:40:39.325Z,69.20
2018-06-23T23:43:07.795Z,68.20
2018-06-23T23:45:36.116Z,67.80
2018-06-23T23:48:04.721Z,68.50
2018-06-23T23:50:33.761Z,70.40
2018-06-23T23:53:02.471Z,70.50
2018-06-23T23:55:30.815Z,70.70
2018-06-23T23:57:59.201Z,71.20
